Independence, Ca., Owens Valley School Weather observations

 Day   Time    Ave.   Ave.  Ave.  Vector  Max.   Total    Solar  
  of    of     Air    Rel.  Wind   Wind   Wind  Precip.   Rad.   
Year   Day     Temp.  Hum.  Speed  Dir.   Gust                   
2014   (PST)    F      %     mph   deg.    mph    in.     W/m2  
----------------------------------------------------------------
 105    5:50   53.3    24    0.1    56     1.1    0.00      41
 105    6:00   52.8    26    0.3   112     2.0    0.00      61
 105    6:10   51.8    30    1.7   149     2.9    0.00      58
 105    6:20   50.9    31    0.5    98     2.0    0.00      60
 105    6:30   51.5    30    0.0     0     0.0    0.00      71
 105    6:40   52.5    30    0.1   214     1.4    0.00      86
 105    6:50   53.4    29    0.0     0     0.0    0.00      99
 105    7:00   54.4    28    0.0     0     0.0    0.00     130
 105    7:10   56.0    26    0.0     0     0.0    0.00     160
 105    7:20   57.3    28    0.4    68     1.5    0.00     189
 105    7:30   58.3    24    1.1    58     3.8    0.00     198
 105    7:40   57.9    27    2.8    40     5.0    0.00     224
 105    7:50   57.9    26    2.4    21     5.0    0.00     271
 105    8:00   58.3    23    1.9    12     4.6    0.00     287
 105    8:10   60.9    21    0.7   293     2.5    0.00     375
 105    8:20   61.6    18    2.9   277     5.0    0.00     380
 105    8:30   62.1    18    3.3   321     6.6    0.00     416
 105    8:40   63.3    16    3.7   327     8.0    0.00     456
 105    8:50   65.0    15    3.0   333     5.6    0.00     504
 105    9:00   66.6    14    3.3   348     7.6    0.00     580
 105    9:10   67.1    14    4.9   352     8.2    0.00     604
 105    9:20   68.7    13    2.3   327     5.4    0.00     654
 105    9:30   71.1    12    3.2   331     6.2    0.00     823
 105    9:40   74.2    11    1.6     1     4.0    0.00     874
 105    9:50   74.0    10    1.8   333     6.2    0.00     714
 105   10:00   74.8    10    1.8   280     5.1    0.00     888
 105   10:10   76.4    10    1.7   318     4.2    0.00     808
 105   10:20   74.4    10    2.2   289     4.4    0.00     758
 105   10:30   76.7    10    1.9   171     6.2    0.00     885
 105   10:40   76.9    10    4.1    74     8.2    0.00     891
 105   10:50   75.7    10    3.4    82     8.2    0.00     896
 105   11:00   77.1    10    3.6   108     8.1    0.00     905
 105   11:10   77.3    10    3.2    66     7.0    0.00     918
 105   11:20   77.3    10    2.9   330     6.4    0.00     926
 105   11:30   77.8    10    3.2   178     6.3    0.00     942
 105   11:40   78.3    10    3.5    96     7.6    0.00     960
 105   11:50   79.5    10    3.1    58     7.7    0.00     994
 105   12:00   79.6    10    2.6   304     7.1    0.00     890
 105   12:10   80.0    10    2.2     9     6.0    0.00     632
 105   12:20   79.4    10    1.2    28     4.6    0.00     496
 105   12:30   80.6    10    3.7    60     8.5    0.00     922
 105   12:40   79.9    10    4.0    84     9.2    0.00     827
 105   12:50   79.8    10    4.2   102     8.8    0.00     856
 105   13:00   80.3    10    3.1    63     8.2    0.00     838
 105   13:10   79.9     9    5.4   144    13.2    0.00     822
 105   13:20   79.8    10    4.9    84    13.3    0.00     803
 105   13:30   80.2    10    5.6   116    12.3    0.00     785
 105   13:40   80.1    10    4.8    89    10.9    0.00     767
 105   13:50   80.9     9    4.6   148     9.5    0.00     747
 105   14:00   81.7     9    4.4   136    10.9    0.00     723
 105   14:10   80.6     9    6.3   139    12.3    0.00     700
 105   14:20   80.6     9    5.6   142    13.7    0.00     673
 105   14:30   80.9     9    5.9   137    11.9    0.00     646
 105   14:40   80.5     9    7.5   146    13.0    0.00     617
 105   14:50   80.7     9    7.2   148    12.5    0.00     588
 105   15:00   80.5     9    6.7   138    12.9    0.00     555
 105   15:10   80.7     8    6.6   132    11.7    0.00     527
 105   15:20   80.9     8    6.0   129    13.7    0.00     498
 105   15:30   80.5     8    7.6   146    15.5    0.00     465
 105   15:40   80.0     8    8.8   148    18.2    0.00     435
 105   15:50   80.3     8    7.6   146    13.6    0.00     402
 105   16:00   80.6     8    7.0   150    13.9    0.00     368
 105   16:10   80.3     8    6.7   152    11.5    0.00     328
 105   16:20   80.3    11    5.5   210    15.2    0.00     292
 105   16:30   80.6    13    5.5   252    14.1    0.00     258
 105   16:40   79.6    14    6.5   243    16.6    0.00     226
 105   16:50   78.4    14    6.9   249    15.7    0.00     193
 105   17:00   78.1    14    6.2   254    14.4    0.00     159
 105   17:10   77.3    14    6.8   263    14.4    0.00      93
 105   17:20   75.6    15    7.6   264    13.6    0.00      27
 105   17:30   75.2    15    6.3   260    13.0    0.00      21
 105   17:40   74.8    15    4.9   256    14.2    0.00      17
 105   17:50   74.2    17    6.4   250    13.3    0.00      12
 105   18:00   73.8    17    6.3   257    13.9    0.00       8
 105   18:10   73.3    17    5.7   263    11.5    0.00       4
 105   18:20   73.0    17    4.6   251    10.1    0.00       1
 105   18:30   72.3    16    3.8   195     9.0    0.00       0
 105   18:40   71.1    15    2.7   180     7.5    0.00       0
 105   18:50   70.2    14    1.3   184     3.5    0.00       0
 105   19:00   69.1    13    1.5   193     3.8    0.00       0
 105   19:10   68.7    13    1.8   220     3.8    0.00       0
 105   19:20   68.4    13    2.0   215     3.7    0.00       0
 105   19:30   68.0    13    2.2   216     4.9    0.00       0
 105   19:40   67.5    13    2.7   217     4.9    0.00       0
 105   19:50   66.7    14    2.1   206     4.3    0.00       0
 105   20:00   66.4    14    2.2   216     5.1    0.00       0
 105   20:10   65.5    17    2.0   326     4.9    0.00       0
 105   20:20   63.6    17    3.5   328     5.2    0.00       0
 105   20:30   65.0    16    1.7   268     3.6    0.00       0
 105   20:40   64.8    17    2.6   298     4.3    0.00       0
 105   20:50   64.2    16    3.3   306     5.0    0.00       0
 105   21:00   64.3    17    3.0   325     4.6    0.00       0
 105   21:10   63.5    18    2.6   302     5.8    0.00       0
 105   21:20   63.0    20    1.6   249     3.5    0.00       0
 105   21:30   62.8    21    2.3   273     4.1    0.00       0
 105   21:40   63.4    20    2.1   284     3.8    0.00       0
 105   21:50   63.6    20    2.4   302     4.9    0.00       0
 105   22:00   63.3    20    2.3   272     3.7    0.00       0
 105   22:10   62.7    20    2.5   254     3.5    0.00       0
 105   22:20   62.3    21    3.0   253     4.9    0.00       0
 105   22:30   62.4    21    1.8   237     3.5    0.00       0
 105   22:40   61.2    22    2.9   251     5.9    0.00       0
 105   22:50   62.3    21    2.1   292     5.2    0.00       0
 105   23:00   63.5    21    2.9   299     6.5    0.00       0
 105   23:10   64.2    20    3.4   302     6.8    0.00       0
 105   23:20   64.5    20    3.8   304     7.7    0.00       0
 105   23:30   62.8    23    2.3   358     5.5    0.00       0
 105   23:40   57.4    28    0.7   128     2.2    0.00       0
 105   23:50   58.9    26    2.2   280     4.4    0.00       0
 106    0:00   62.1    22    3.6   282    10.3    0.00       0
 106    0:10   63.4    20    3.9   292    10.6    0.00       0
 106    0:20   64.0    20    3.9   290     7.6    0.00       0
 106    0:30   64.0    20    4.3   304     8.6    0.00       0
 106    0:40   63.8    20    3.8   304     7.4    0.00       0
 106    0:50   63.2    20    3.7   320     6.7    0.00       0
 106    1:00   59.0    28    0.9   114     3.5    0.00       0
 106    1:10   55.1    30    2.0   142     3.0    0.00       0
 106    1:20   53.9    30    2.5   140     4.1    0.00       0
 106    1:30   53.8    31    1.4   148     2.4    0.00       0
 106    1:40   53.6    31    0.4   149     2.5    0.00       0
 106    1:50   53.5    32    1.2   204     3.0    0.00       0
 106    2:00   53.3    31    0.5   194     2.2    0.00       0
 106    2:10   53.2    31    0.3   148     2.8    0.00       0
 106    2:20   54.4    29    0.6    55     2.4    0.00       0
 106    2:30   54.3    30    0.2    77     1.7    0.00       0
 106    2:40   54.2    30    1.5   136     2.5    0.00       0
 106    2:50   53.4    31    1.1    80     2.7    0.00       0
 106    3:00   54.3    29    1.8   354     3.3    0.00       0
 106    3:10   54.4    29    2.9   339     4.3    0.00       0
 106    3:20   55.1    28    3.7   313     9.6    0.00       0
 106    3:30   56.6    26    3.9   312     8.7    0.00       0
 106    3:40   56.8    26    5.3   314    12.5    0.00       0
 106    3:50   56.0    28    3.0   314     7.9    0.00       0
 106    4:00   54.9    29    1.0    55     4.6    0.00       0
 106    4:10   54.8    29    7.2   321    12.4    0.00       0
 106    4:20   54.8    29    3.6   322     8.3    0.00       0
 106    4:30   55.9    27    7.1   324    14.4    0.00       0
 106    4:40   57.2    26    8.1   316    16.0    0.00       0
 106    4:50   57.5    26    7.3   311    16.3    0.00       1
 106    5:00   57.5    26    5.8   316    11.9    0.00       3
 106    5:10   57.1    26    4.8   321    10.2    0.00       7
 106    5:20   56.1    29    2.8    93     6.3    0.00      14
 106    5:30   54.4    30    3.2   138     5.7    0.00      27
 106    5:40   56.4    28    2.0   286     4.9    0.00      99

Return to Independence, Ca. graphs page.


Western Regional Climate Center,wrcc@dri.edu